SHMÚ 65 rokov / 1954-2019 - Ďakujeme našim partnerom


TAF

Letisková predpoveď TAF

Informácie o správe TAF

21.10.2019 - 11:00 UTC

TAF LZIB 211100Z 2112/2212 07007KT CAVOK
    BECMG 2122/2200 VRB02KT 4000 BR SCT004
    TEMPO 2200/2208 1200 BCFG BKN002
    TEMPO 2203/2206 0300 FG OVC001
    BECMG 2208/2210 07007KT 9999 SCT020=
TAF LZKZ 211100Z 2112/2212 20008KT CAVOK
    BECMG 2117/2119 VRB02KT
    BECMG 2121/2123 3500 BR NSC
    BECMG 2123/2201 1200 BCFG SCT003
    TEMPO 2202/2207 0200 FG BKN001
    BECMG 2207/2209 20005KT CAVOK=
TAF LZTT 211100Z 2112/2212 14007KT CAVOK
    BECMG 2116/2118 25004KT
    BECMG 2121/2123 4000 BR FEW005
    BECMG 2200/2202 2500 BCFG SCT003
    TEMPO 2202/2206 VRB02KT 0300 FG BKN001
    BECMG 2208/2210 15005KT CAVOK=

21.10.2019 - 11:00 UTC

TAF LZSL 211100Z 2112/2121 35004KT CAVOK
    TEMPO 2112/2115 22005KT
    BECMG 2120/2121 VRB02KT 4000 BR SCT004=
TAF LZPP 211100Z 2112/2121 14010KT CAVOK
    BECMG 2115/2117 VRB02KT=
TAF LZZI 211100Z 2112/2121 27005KT CAVOK
    BECMG 2114/2116 VRB02KT
    BECMG 2117/2119 4000 BR SCT004
    TEMPO 2119/2121 1200 BR BKN004=

21.10.2019 - 08:00 UTC

TAF LZSL 210800Z 2109/2118 VRB02KT CAVOK
    TEMPO 2110/2113 22005KT=
TAF LZPP 210800Z 2109/2118 14010KT CAVOK
    BECMG 2115/2117 VRB02KT=
TAF LZZI 210800Z 2109/2118 VRB02KT CAVOK
    TEMPO 2110/2115 25005KT=

21.10.2019 - 05:00 UTC

TAF AMD LZZI 210603Z 2106/2115 VRB02KT CAVOK
    TEMPO 2110/2115 25005KT=

21.10.2019 - 02:00 UTC

TAF AMD LZSL 210519Z 2105/2112 VRB02KT 9999 FEW035
    TEMPO 2105/2107 1800 BCFG SCT003
    BECMG 2107/2109 36005KT=

21.10.2019 - 05:00 UTC

TAF LZIB 210500Z 2106/2206 05005KT CAVOK
    TEMPO 2111/2115 9999 FEW035
    BECMG 2122/2200 VRB02KT 4000 BR SCT004
    TEMPO 2202/2206 1200 BCFG BKN002
    PROB40 TEMPO 2203/2206 0300 FG BKN001=
TAF LZKZ 210500Z 2106/2206 VRB02KT CAVOK
    TEMPO 2108/2117 20008KT
    BECMG 2121/2123 3500 BR NSC
    BECMG 2123/2201 1200 BCFG SCT003
    TEMPO 2202/2206 0200 FG BKN001=
TAF LZTT 210500Z 2106/2206 20010KT CAVOK
    BECMG 2115/2117 VRB02KT
    BECMG 2121/2123 4000 BR FEW005
    TEMPO 2200/2206 2500 BCFG SCT003=

21.10.2019 - 05:00 UTC

TAF LZSL 210500Z 2106/2115 VRB02KT 9999 FEW035
    TEMPO 2106/2107 1800 BR SCT002
    PROB40 TEMPO 2106/2107 0400 BKN001
    BECMG 2107/2109 36005KT CAVOK=
TAF LZPP 210500Z 2106/2115 14010KT CAVOK=
TAF LZZI 210500Z 2106/2115 VRB02KT 4000 BR NSC
    TEMPO 2106/2108 1200 BCFG SCT002
    PROB30 TEMPO 2106/2107 0200 FG BKN001
    BECMG 2108/2110 9999 FEW040=

21.10.2019 - 02:00 UTC

TAF COR LZSL 210242Z 2103/2112 VRB02KT 4000 BR FEW005
    TEMPO 2103/2107 1800 BCFG SCT003
    PROB30 TEMPO 2104/2106 0400 FG BKN002
    BECMG 2107/2109 36005KT 9999 FEW035=

21.10.2019 - 02:00 UTC

TAF LZSL 210200Z 2103/2112 VRB02KT CAVOK
    TEMPO 2103/2107 1800 BCFG SCT003
    PROB30 TEMPO 2104/2106 0400 FG BKN002
    BECMG 2107/2109 36005KT=
TAF LZZI 210200Z 2103/2112 VRB02KT 9999 FEW045
    TEMPO 2103/2108 1200 BCFG SCT002
    PROB30 TEMPO 2103/2107 0200 FG BKN001=

skok na menu ↑


skok na začiatok stránky ↑